sensor_id;sensor_type;location;lat;lon;timestamp;P1;durP1;ratioP1;P2;durP2;ratioP2
15202;SDS011;7702;51.046;5.184;2023-03-01T00:02:01;9.57;;;7.83;;
15202;SDS011;7702;51.046;5.184;2023-03-01T00:04:26;9.93;;;8.30;;
15202;SDS011;7702;51.046;5.184;2023-03-01T00:06:52;10.97;;;7.80;;
15202;SDS011;7702;51.046;5.184;2023-03-01T00:09:19;10.03;;;7.33;;
15202;SDS011;7702;51.046;5.184;2023-03-01T00:11:45;8.17;;;7.37;;
15202;SDS011;7702;51.046;5.184;2023-03-01T00:14:10;9.67;;;7.40;;
15202;SDS011;7702;51.046;5.184;2023-03-01T00:16:38;9.07;;;7.27;;
15202;SDS011;7702;51.046;5.184;2023-03-01T00:19:06;8.80;;;7.20;;
15202;SDS011;7702;51.046;5.184;2023-03-01T00:21:34;9.50;;;7.43;;
15202;SDS011;7702;51.046;5.184;2023-03-01T00:24:00;8.83;;;6.87;;
15202;SDS011;7702;51.046;5.184;2023-03-01T00:26:26;7.97;;;6.80;;
15202;SDS011;7702;51.046;5.184;2023-03-01T00:28:53;9.43;;;6.60;;
15202;SDS011;7702;51.046;5.184;2023-03-01T00:31:22;9.60;;;7.53;;
15202;SDS011;7702;51.046;5.184;2023-03-01T00:33:52;8.90;;;7.27;;
15202;SDS011;7702;51.046;5.184;2023-03-01T00:36:22;10.47;;;8.00;;
15202;SDS011;7702;51.046;5.184;2023-03-01T00:38:48;8.73;;;7.33;;
15202;SDS011;7702;51.046;5.184;2023-03-01T00:41:15;9.37;;;7.73;;
15202;SDS011;7702;51.046;5.184;2023-03-01T00:43:44;7.67;;;6.70;;
15202;SDS011;7702;51.046;5.184;2023-03-01T00:46:11;8.87;;;6.97;;
15202;SDS011;7702;51.046;5.184;2023-03-01T00:48:39;7.70;;;6.90;;
15202;SDS011;7702;51.046;5.184;2023-03-01T00:53:31;7.70;;;6.53;;
15202;SDS011;7702;51.046;5.184;2023-03-01T00:55:58;8.30;;;6.67;;
15202;SDS011;7702;51.046;5.184;2023-03-01T00:58:24;8.47;;;7.23;;
15202;SDS011;7702;51.046;5.184;2023-03-01T01:00:49;7.93;;;6.73;;
15202;SDS011;7702;51.046;5.184;2023-03-01T01:03:16;11.60;;;7.33;;
15202;SDS011;7702;51.046;5.184;2023-03-01T01:05:41;7.90;;;7.07;;
15202;SDS011;7702;51.046;5.184;2023-03-01T01:08:07;8.00;;;7.20;;
15202;SDS011;7702;51.046;5.184;2023-03-01T01:10:33;10.87;;;7.23;;
15202;SDS011;7702;51.046;5.184;2023-03-01T01:12:59;7.60;;;6.73;;
15202;SDS011;7702;51.046;5.184;2023-03-01T01:15:25;9.83;;;7.23;;
15202;SDS011;7702;51.046;5.184;2023-03-01T01:17:51;8.63;;;7.73;;
15202;SDS011;7702;51.046;5.184;2023-03-01T01:20:17;8.37;;;6.77;;
15202;SDS011;7702;51.046;5.184;2023-03-01T01:22:44;8.47;;;7.63;;
15202;SDS011;7702;51.046;5.184;2023-03-01T01:25:09;8.23;;;7.40;;
15202;SDS011;7702;51.046;5.184;2023-03-01T01:27:35;10.23;;;7.43;;
15202;SDS011;7702;51.046;5.184;2023-03-01T01:30:02;7.97;;;7.17;;
15202;SDS011;7702;51.046;5.184;2023-03-01T01:32:29;10.67;;;7.63;;
15202;SDS011;7702;51.046;5.184;2023-03-01T01:34:54;8.87;;;7.97;;
15202;SDS011;7702;51.046;5.184;2023-03-01T01:37:20;8.57;;;7.57;;
15202;SDS011;7702;51.046;5.184;2023-03-01T01:39:46;8.27;;;7.40;;
15202;SDS011;7702;51.046;5.184;2023-03-01T01:42:16;9.80;;;7.63;;
15202;SDS011;7702;51.046;5.184;2023-03-01T01:44:44;7.80;;;6.70;;
15202;SDS011;7702;51.046;5.184;2023-03-01T01:47:14;10.40;;;7.87;;
15202;SDS011;7702;51.046;5.184;2023-03-01T01:49:55;8.20;;;7.40;;
15202;SDS011;7702;51.046;5.184;2023-03-01T01:52:26;8.40;;;7.50;;
15202;SDS011;7702;51.046;5.184;2023-03-01T01:54:57;9.23;;;7.67;;
15202;SDS011;7702;51.046;5.184;2023-03-01T01:57:36;9.00;;;7.40;;
15202;SDS011;7702;51.046;5.184;2023-03-01T02:00:09;10.87;;;8.10;;
15202;SDS011;7702;51.046;5.184;2023-03-01T02:02:38;8.93;;;7.50;;
15202;SDS011;7702;51.046;5.184;2023-03-01T02:05:08;9.40;;;7.63;;
15202;SDS011;7702;51.046;5.184;2023-03-01T02:07:38;10.10;;;8.07;;
15202;SDS011;7702;51.046;5.184;2023-03-01T02:10:05;9.43;;;8.40;;
15202;SDS011;7702;51.046;5.184;2023-03-01T02:12:31;8.17;;;7.37;;
15202;SDS011;7702;51.046;5.184;2023-03-01T02:14:59;11.97;;;7.57;;
15202;SDS011;7702;51.046;5.184;2023-03-01T02:17:24;8.87;;;7.30;;
15202;SDS011;7702;51.046;5.184;2023-03-01T02:22:50;8.83;;;7.80;;
15202;SDS011;7702;51.046;5.184;2023-03-01T02:28:47;8.87;;;7.97;;
15202;SDS011;7702;51.046;5.184;2023-03-01T02:30:45;11.30;;;8.00;;
15202;SDS011;7702;51.046;5.184;2023-03-01T02:33:32;11.63;;;7.87;;
15202;SDS011;7702;51.046;5.184;2023-03-01T02:36:02;9.57;;;7.63;;
15202;SDS011;7702;51.046;5.184;2023-03-01T02:38:31;9.67;;;8.00;;
15202;SDS011;7702;51.046;5.184;2023-03-01T02:40:57;8.80;;;7.77;;
15202;SDS011;7702;51.046;5.184;2023-03-01T02:43:25;9.10;;;7.30;;
15202;SDS011;7702;51.046;5.184;2023-03-01T02:45:57;9.40;;;7.87;;
15202;SDS011;7702;51.046;5.184;2023-03-01T02:48:24;10.90;;;7.27;;
15202;SDS011;7702;51.046;5.184;2023-03-01T02:51:04;9.83;;;7.63;;
15202;SDS011;7702;51.046;5.184;2023-03-01T02:53:48;9.10;;;7.73;;
15202;SDS011;7702;51.046;5.184;2023-03-01T02:56:18;8.90;;;7.77;;
15202;SDS011;7702;51.046;5.184;2023-03-01T02:58:44;8.60;;;7.00;;
15202;SDS011;7702;51.046;5.184;2023-03-01T03:01:13;10.70;;;8.30;;
15202;SDS011;7702;51.046;5.184;2023-03-01T03:03:40;8.87;;;7.50;;
15202;SDS011;7702;51.046;5.184;2023-03-01T03:06:06;11.13;;;8.47;;
15202;SDS011;7702;51.046;5.184;2023-03-01T03:08:32;9.40;;;7.77;;
15202;SDS011;7702;51.046;5.184;2023-03-01T03:10:58;9.20;;;7.77;;
15202;SDS011;7702;51.046;5.184;2023-03-01T03:13:24;10.80;;;8.10;;
15202;SDS011;7702;51.046;5.184;2023-03-01T03:15:53;8.87;;;7.60;;
15202;SDS011;7702;51.046;5.184;2023-03-01T03:18:20;8.93;;;7.40;;
15202;SDS011;7702;51.046;5.184;2023-03-01T03:20:47;10.67;;;7.63;;
15202;SDS011;7702;51.046;5.184;2023-03-01T03:23:18;10.33;;;8.20;;
15202;SDS011;7702;51.046;5.184;2023-03-01T03:25:44;9.13;;;7.70;;
15202;SDS011;7702;51.046;5.184;2023-03-01T03:28:12;9.37;;;7.37;;
15202;SDS011;7702;51.046;5.184;2023-03-01T03:30:39;9.00;;;7.47;;
15202;SDS011;7702;51.046;5.184;2023-03-01T03:33:05;7.53;;;6.77;;
15202;SDS011;7702;51.046;5.184;2023-03-01T03:35:32;9.10;;;7.57;;
15202;SDS011;7702;51.046;5.184;2023-03-01T03:38:12;9.83;;;8.20;;
15202;SDS011;7702;51.046;5.184;2023-03-01T03:40:43;9.27;;;7.17;;
15202;SDS011;7702;51.046;5.184;2023-03-01T03:43:13;8.00;;;7.17;;
15202;SDS011;7702;51.046;5.184;2023-03-01T03:45:40;9.37;;;7.63;;
15202;SDS011;7702;51.046;5.184;2023-03-01T03:48:07;9.03;;;7.77;;
15202;SDS011;7702;51.046;5.184;2023-03-01T03:50:37;9.70;;;7.77;;
15202;SDS011;7702;51.046;5.184;2023-03-01T03:53:09;9.63;;;7.53;;
15202;SDS011;7702;51.046;5.184;2023-03-01T03:55:36;7.97;;;7.10;;
15202;SDS011;7702;51.046;5.184;2023-03-01T03:58:04;9.60;;;7.70;;
15202;SDS011;7702;51.046;5.184;2023-03-01T04:00:37;8.37;;;7.03;;
15202;SDS011;7702;51.046;5.184;2023-03-01T04:03:05;9.23;;;7.90;;
15202;SDS011;7702;51.046;5.184;2023-03-01T04:05:32;9.93;;;7.83;;
15202;SDS011;7702;51.046;5.184;2023-03-01T04:07:58;8.80;;;7.53;;
15202;SDS011;7702;51.046;5.184;2023-03-01T04:10:27;7.87;;;6.53;;
15202;SDS011;7702;51.046;5.184;2023-03-01T04:12:58;8.93;;;8.03;;
15202;SDS011;7702;51.046;5.184;2023-03-01T04:15:24;10.63;;;7.37;;
15202;SDS011;7702;51.046;5.184;2023-03-01T04:17:51;10.90;;;8.23;;
15202;SDS011;7702;51.046;5.184;2023-03-01T04:20:20;8.63;;;6.93;;
15202;SDS011;7702;51.046;5.184;2023-03-01T04:25:47;7.70;;;6.90;;
15202;SDS011;7702;51.046;5.184;2023-03-01T04:28:39;8.70;;;7.17;;
15202;SDS011;7702;51.046;5.184;2023-03-01T04:31:11;9.13;;;7.60;;
15202;SDS011;7702;51.046;5.184;2023-03-01T04:33:39;10.33;;;7.40;;
15202;SDS011;7702;51.046;5.184;2023-03-01T04:36:06;9.67;;;8.07;;
15202;SDS011;7702;51.046;5.184;2023-03-01T04:38:34;8.33;;;7.43;;
15202;SDS011;7702;51.046;5.184;2023-03-01T04:41:02;10.93;;;7.80;;
15202;SDS011;7702;51.046;5.184;2023-03-01T04:43:29;8.93;;;7.57;;
15202;SDS011;7702;51.046;5.184;2023-03-01T04:45:59;8.83;;;7.73;;
15202;SDS011;7702;51.046;5.184;2023-03-01T04:48:30;10.87;;;7.37;;
15202;SDS011;7702;51.046;5.184;2023-03-01T04:50:57;11.77;;;7.50;;
15202;SDS011;7702;51.046;5.184;2023-03-01T04:53:27;9.53;;;7.27;;
15202;SDS011;7702;51.046;5.184;2023-03-01T04:55:56;10.37;;;7.97;;
15202;SDS011;7702;51.046;5.184;2023-03-01T04:58:22;9.63;;;7.43;;
15202;SDS011;7702;51.046;5.184;2023-03-01T05:00:49;9.20;;;7.70;;
15202;SDS011;7702;51.046;5.184;2023-03-01T05:03:15;9.57;;;7.73;;
15202;SDS011;7702;51.046;5.184;2023-03-01T05:05:43;9.67;;;7.50;;
15202;SDS011;7702;51.046;5.184;2023-03-01T05:08:10;11.60;;;7.90;;
15202;SDS011;7702;51.046;5.184;2023-03-01T05:10:46;10.03;;;7.70;;
15202;SDS011;7702;51.046;5.184;2023-03-01T05:13:16;9.50;;;7.43;;
15202;SDS011;7702;51.046;5.184;2023-03-01T05:15:55;12.63;;;8.37;;
15202;SDS011;7702;51.046;5.184;2023-03-01T05:18:24;10.77;;;7.10;;
15202;SDS011;7702;51.046;5.184;2023-03-01T05:20:53;10.03;;;7.80;;
15202;SDS011;7702;51.046;5.184;2023-03-01T05:23:21;9.47;;;7.83;;
15202;SDS011;7702;51.046;5.184;2023-03-01T05:25:47;9.70;;;7.33;;
15202;SDS011;7702;51.046;5.184;2023-03-01T05:28:14;12.33;;;8.30;;
15202;SDS011;7702;51.046;5.184;2023-03-01T05:30:41;11.53;;;8.30;;
15202;SDS011;7702;51.046;5.184;2023-03-01T05:33:07;12.40;;;8.23;;
15202;SDS011;7702;51.046;5.184;2023-03-01T05:35:38;9.80;;;8.50;;
15202;SDS011;7702;51.046;5.184;2023-03-01T05:38:06;10.77;;;7.80;;
15202;SDS011;7702;51.046;5.184;2023-03-01T05:40:32;11.13;;;8.13;;
15202;SDS011;7702;51.046;5.184;2023-03-01T05:42:58;8.97;;;7.87;;
15202;SDS011;7702;51.046;5.184;2023-03-01T05:45:25;11.60;;;8.83;;
15202;SDS011;7702;51.046;5.184;2023-03-01T05:47:52;11.63;;;8.07;;
15202;SDS011;7702;51.046;5.184;2023-03-01T05:50:21;12.30;;;8.90;;
15202;SDS011;7702;51.046;5.184;2023-03-01T05:55:31;10.83;;;7.83;;
15202;SDS011;7702;51.046;5.184;2023-03-01T05:57:58;14.67;;;7.97;;
15202;SDS011;7702;51.046;5.184;2023-03-01T06:00:25;10.70;;;7.93;;
15202;SDS011;7702;51.046;5.184;2023-03-01T06:02:53;11.73;;;8.47;;
15202;SDS011;7702;51.046;5.184;2023-03-01T06:05:19;11.27;;;8.00;;
15202;SDS011;7702;51.046;5.184;2023-03-01T06:07:46;9.80;;;8.00;;
15202;SDS011;7702;51.046;5.184;2023-03-01T06:10:12;13.27;;;8.03;;
15202;SDS011;7702;51.046;5.184;2023-03-01T06:12:39;11.57;;;7.97;;
15202;SDS011;7702;51.046;5.184;2023-03-01T06:15:06;12.43;;;8.20;;
15202;SDS011;7702;51.046;5.184;2023-03-01T06:17:34;13.00;;;9.73;;
15202;SDS011;7702;51.046;5.184;2023-03-01T06:20:05;11.67;;;8.70;;
15202;SDS011;7702;51.046;5.184;2023-03-01T06:22:33;11.60;;;8.10;;
15202;SDS011;7702;51.046;5.184;2023-03-01T06:24:59;11.97;;;8.30;;
15202;SDS011;7702;51.046;5.184;2023-03-01T06:27:24;10.23;;;9.00;;
15202;SDS011;7702;51.046;5.184;2023-03-01T06:29:50;11.17;;;8.67;;
15202;SDS011;7702;51.046;5.184;2023-03-01T06:32:16;9.93;;;8.17;;
15202;SDS011;7702;51.046;5.184;2023-03-01T06:34:42;11.33;;;8.67;;
15202;SDS011;7702;51.046;5.184;2023-03-01T06:37:07;11.87;;;7.90;;
15202;SDS011;7702;51.046;5.184;2023-03-01T06:39:33;9.60;;;8.27;;
15202;SDS011;7702;51.046;5.184;2023-03-01T06:42:00;11.97;;;8.83;;
15202;SDS011;7702;51.046;5.184;2023-03-01T06:44:26;11.40;;;8.70;;
15202;SDS011;7702;51.046;5.184;2023-03-01T06:46:52;10.00;;;8.50;;
15202;SDS011;7702;51.046;5.184;2023-03-01T06:49:18;10.07;;;8.90;;
15202;SDS011;7702;51.046;5.184;2023-03-01T06:51:44;12.90;;;8.80;;
15202;SDS011;7702;51.046;5.184;2023-03-01T06:54:11;11.87;;;8.63;;
15202;SDS011;7702;51.046;5.184;2023-03-01T06:56:36;11.77;;;8.60;;
15202;SDS011;7702;51.046;5.184;2023-03-01T06:59:02;13.80;;;9.10;;
15202;SDS011;7702;51.046;5.184;2023-03-01T07:01:29;10.93;;;8.83;;
15202;SDS011;7702;51.046;5.184;2023-03-01T07:03:55;11.67;;;8.87;;
15202;SDS011;7702;51.046;5.184;2023-03-01T07:06:21;10.20;;;7.97;;
15202;SDS011;7702;51.046;5.184;2023-03-01T07:08:47;13.43;;;9.23;;
15202;SDS011;7702;51.046;5.184;2023-03-01T07:11:12;13.43;;;9.13;;
15202;SDS011;7702;51.046;5.184;2023-03-01T07:13:39;12.57;;;9.87;;
15202;SDS011;7702;51.046;5.184;2023-03-01T07:16:05;13.73;;;10.23;;
15202;SDS011;7702;51.046;5.184;2023-03-01T07:18:31;12.10;;;9.13;;
15202;SDS011;7702;51.046;5.184;2023-03-01T07:20:57;10.23;;;9.00;;
15202;SDS011;7702;51.046;5.184;2023-03-01T07:23:22;12.30;;;9.37;;
15202;SDS011;7702;51.046;5.184;2023-03-01T07:25:52;12.47;;;9.30;;
15202;SDS011;7702;51.046;5.184;2023-03-01T07:28:18;12.33;;;9.13;;
15202;SDS011;7702;51.046;5.184;2023-03-01T07:30:44;10.83;;;9.27;;
15202;SDS011;7702;51.046;5.184;2023-03-01T07:33:10;14.30;;;10.07;;
15202;SDS011;7702;51.046;5.184;2023-03-01T07:35:35;10.30;;;9.00;;
15202;SDS011;7702;51.046;5.184;2023-03-01T07:38:01;11.80;;;8.83;;
15202;SDS011;7702;51.046;5.184;2023-03-01T07:40:27;13.30;;;9.80;;
15202;SDS011;7702;51.046;5.184;2023-03-01T07:42:56;11.03;;;9.37;;
15202;SDS011;7702;51.046;5.184;2023-03-01T07:45:23;11.00;;;9.50;;
15202;SDS011;7702;51.046;5.184;2023-03-01T07:47:50;11.63;;;8.70;;
15202;SDS011;7702;51.046;5.184;2023-03-01T07:50:17;9.60;;;8.60;;
15202;SDS011;7702;51.046;5.184;2023-03-01T07:52:44;11.03;;;9.47;;
15202;SDS011;7702;51.046;5.184;2023-03-01T07:55:11;12.77;;;9.40;;
15202;SDS011;7702;51.046;5.184;2023-03-01T07:57:37;11.00;;;9.23;;
15202;SDS011;7702;51.046;5.184;2023-03-01T08:00:03;10.37;;;8.87;;
15202;SDS011;7702;51.046;5.184;2023-03-01T08:02:30;14.63;;;9.53;;
15202;SDS011;7702;51.046;5.184;2023-03-01T08:04:56;12.63;;;9.50;;
15202;SDS011;7702;51.046;5.184;2023-03-01T08:07:22;11.00;;;8.60;;
15202;SDS011;7702;51.046;5.184;2023-03-01T08:09:48;11.40;;;9.87;;
15202;SDS011;7702;51.046;5.184;2023-03-01T08:12:13;13.53;;;9.13;;
15202;SDS011;7702;51.046;5.184;2023-03-01T08:14:41;11.27;;;9.07;;
15202;SDS011;7702;51.046;5.184;2023-03-01T08:17:07;12.90;;;10.13;;
15202;SDS011;7702;51.046;5.184;2023-03-01T08:19:32;12.80;;;8.87;;
15202;SDS011;7702;51.046;5.184;2023-03-01T08:21:59;14.23;;;10.07;;
15202;SDS011;7702;51.046;5.184;2023-03-01T08:24:28;11.47;;;9.60;;
15202;SDS011;7702;51.046;5.184;2023-03-01T08:26:54;10.10;;;8.73;;
15202;SDS011;7702;51.046;5.184;2023-03-01T08:29:20;11.03;;;8.77;;
15202;SDS011;7702;51.046;5.184;2023-03-01T08:31:47;10.87;;;9.10;;
15202;SDS011;7702;51.046;5.184;2023-03-01T08:34:14;10.37;;;9.33;;
15202;SDS011;7702;51.046;5.184;2023-03-01T08:36:42;12.43;;;8.47;;
15202;SDS011;7702;51.046;5.184;2023-03-01T08:39:10;15.10;;;10.10;;
15202;SDS011;7702;51.046;5.184;2023-03-01T08:41:38;12.53;;;9.60;;
15202;SDS011;7702;51.046;5.184;2023-03-01T08:44:04;10.43;;;9.07;;
15202;SDS011;7702;51.046;5.184;2023-03-01T08:46:31;9.57;;;8.40;;
15202;SDS011;7702;51.046;5.184;2023-03-01T08:48:59;12.50;;;8.83;;
15202;SDS011;7702;51.046;5.184;2023-03-01T08:51:25;11.40;;;9.20;;
15202;SDS011;7702;51.046;5.184;2023-03-01T08:53:51;12.57;;;9.37;;
15202;SDS011;7702;51.046;5.184;2023-03-01T08:56:18;10.03;;;8.97;;
15202;SDS011;7702;51.046;5.184;2023-03-01T08:58:44;11.70;;;9.20;;
15202;SDS011;7702;51.046;5.184;2023-03-01T09:01:12;11.87;;;9.10;;
15202;SDS011;7702;51.046;5.184;2023-03-01T09:03:40;10.90;;;9.17;;
15202;SDS011;7702;51.046;5.184;2023-03-01T09:06:07;11.33;;;9.57;;
15202;SDS011;7702;51.046;5.184;2023-03-01T09:08:39;14.80;;;9.47;;
15202;SDS011;7702;51.046;5.184;2023-03-01T09:11:07;11.50;;;9.77;;
15202;SDS011;7702;51.046;5.184;2023-03-01T09:13:34;9.93;;;9.00;;
15202;SDS011;7702;51.046;5.184;2023-03-01T09:16:01;12.07;;;9.27;;
15202;SDS011;7702;51.046;5.184;2023-03-01T09:18:29;10.90;;;9.57;;
15202;SDS011;7702;51.046;5.184;2023-03-01T09:21:02;9.77;;;8.80;;
15202;SDS011;7702;51.046;5.184;2023-03-01T09:23:40;11.87;;;9.47;;
15202;SDS011;7702;51.046;5.184;2023-03-01T09:26:08;11.47;;;9.37;;
15202;SDS011;7702;51.046;5.184;2023-03-01T09:28:36;11.00;;;9.47;;
15202;SDS011;7702;51.046;5.184;2023-03-01T09:31:03;10.43;;;9.37;;
15202;SDS011;7702;51.046;5.184;2023-03-01T09:33:30;13.17;;;9.30;;
15202;SDS011;7702;51.046;5.184;2023-03-01T09:36:01;10.60;;;9.50;;
15202;SDS011;7702;51.046;5.184;2023-03-01T09:38:28;11.57;;;10.17;;
15202;SDS011;7702;51.046;5.184;2023-03-01T09:40:54;11.30;;;10.10;;
15202;SDS011;7702;51.046;5.184;2023-03-01T09:45:52;10.83;;;9.73;;
15202;SDS011;7702;51.046;5.184;2023-03-01T09:48:20;11.40;;;9.67;;
15202;SDS011;7702;51.046;5.184;2023-03-01T09:50:50;11.13;;;9.60;;
15202;SDS011;7702;51.046;5.184;2023-03-01T09:53:21;13.13;;;9.37;;
15202;SDS011;7702;51.046;5.184;2023-03-01T10:06:47;10.73;;;9.67;;
15202;SDS011;7702;51.046;5.184;2023-03-01T10:09:46;10.93;;;9.77;;
15202;SDS011;7702;51.046;5.184;2023-03-01T10:12:35;10.50;;;9.40;;
15202;SDS011;7702;51.046;5.184;2023-03-01T10:15:10;11.50;;;9.30;;
15202;SDS011;7702;51.046;5.184;2023-03-01T10:17:44;11.77;;;9.23;;
15202;SDS011;7702;51.046;5.184;2023-03-01T10:20:22;10.33;;;9.33;;
15202;SDS011;7702;51.046;5.184;2023-03-01T10:22:50;10.53;;;9.27;;
15202;SDS011;7702;51.046;5.184;2023-03-01T10:25:29;10.53;;;9.43;;
15202;SDS011;7702;51.046;5.184;2023-03-01T10:28:07;11.20;;;9.80;;
15202;SDS011;7702;51.046;5.184;2023-03-01T10:30:49;10.50;;;9.37;;
15202;SDS011;7702;51.046;5.184;2023-03-01T10:35:52;10.77;;;9.47;;
15202;SDS011;7702;51.046;5.184;2023-03-01T10:38:18;10.73;;;9.57;;
15202;SDS011;7702;51.046;5.184;2023-03-01T10:40:53;11.20;;;9.97;;
15202;SDS011;7702;51.046;5.184;2023-03-01T10:46:30;12.63;;;10.67;;
15202;SDS011;7702;51.046;5.184;2023-03-01T10:49:19;14.37;;;10.20;;
15202;SDS011;7702;51.046;5.184;2023-03-01T10:51:47;10.27;;;8.93;;
15202;SDS011;7702;51.046;5.184;2023-03-01T10:54:16;12.37;;;10.07;;
15202;SDS011;7702;51.046;5.184;2023-03-01T10:56:51;11.43;;;10.43;;
15202;SDS011;7702;51.046;5.184;2023-03-01T10:59:28;11.50;;;9.93;;
15202;SDS011;7702;51.046;5.184;2023-03-01T11:04:56;12.90;;;9.97;;
15202;SDS011;7702;51.046;5.184;2023-03-01T11:07:26;10.80;;;9.70;;
15202;SDS011;7702;51.046;5.184;2023-03-01T11:09:51;11.70;;;10.00;;
15202;SDS011;7702;51.046;5.184;2023-03-01T11:12:17;10.73;;;9.50;;
15202;SDS011;7702;51.046;5.184;2023-03-01T11:14:53;12.47;;;9.57;;
15202;SDS011;7702;51.046;5.184;2023-03-01T11:20:00;10.93;;;9.50;;
15202;SDS011;7702;51.046;5.184;2023-03-01T11:22:48;11.63;;;9.93;;
15202;SDS011;7702;51.046;5.184;2023-03-01T11:25:17;13.37;;;9.57;;
15202;SDS011;7702;51.046;5.184;2023-03-01T11:27:48;11.23;;;9.23;;
15202;SDS011;7702;51.046;5.184;2023-03-01T11:35:34;13.13;;;9.70;;
15202;SDS011;7702;51.046;5.184;2023-03-01T11:38:15;10.57;;;9.47;;
15202;SDS011;7702;51.046;5.184;2023-03-01T11:57:07;10.07;;;9.07;;
15202;SDS011;7702;51.046;5.184;2023-03-01T12:08:30;12.40;;;9.90;;
15202;SDS011;7702;51.046;5.184;2023-03-01T12:24:10;12.20;;;9.77;;
15202;SDS011;7702;51.046;5.184;2023-03-01T12:26:58;10.83;;;9.73;;
15202;SDS011;7702;51.046;5.184;2023-03-01T12:30:34;12.90;;;9.70;;
15202;SDS011;7702;51.046;5.184;2023-03-01T12:37:56;10.97;;;9.57;;
15202;SDS011;7702;51.046;5.184;2023-03-01T12:49:17;10.70;;;9.47;;
15202;SDS011;7702;51.046;5.184;2023-03-01T12:51:46;13.10;;;9.27;;
15202;SDS011;7702;51.046;5.184;2023-03-01T12:54:25;10.43;;;9.07;;
15202;SDS011;7702;51.046;5.184;2023-03-01T12:56:57;10.73;;;9.67;;
15202;SDS011;7702;51.046;5.184;2023-03-01T13:02:07;13.80;;;10.13;;
15202;SDS011;7702;51.046;5.184;2023-03-01T13:05:19;11.73;;;10.53;;
15202;SDS011;7702;51.046;5.184;2023-03-01T13:11:11;11.20;;;9.97;;
15202;SDS011;7702;51.046;5.184;2023-03-01T13:13:45;11.60;;;10.30;;
15202;SDS011;7702;51.046;5.184;2023-03-01T13:19:12;13.83;;;11.00;;
15202;SDS011;7702;51.046;5.184;2023-03-01T13:21:39;14.97;;;10.93;;
15202;SDS011;7702;51.046;5.184;2023-03-01T13:24:23;12.90;;;10.40;;
15202;SDS011;7702;51.046;5.184;2023-03-01T13:29:53;11.10;;;9.63;;
15202;SDS011;7702;51.046;5.184;2023-03-01T13:34:45;10.90;;;9.20;;
15202;SDS011;7702;51.046;5.184;2023-03-01T13:37:20;10.13;;;8.70;;
15202;SDS011;7702;51.046;5.184;2023-03-01T13:39:47;12.43;;;9.63;;
15202;SDS011;7702;51.046;5.184;2023-03-01T13:42:30;13.80;;;9.73;;
15202;SDS011;7702;51.046;5.184;2023-03-01T13:45:05;10.00;;;9.00;;
15202;SDS011;7702;51.046;5.184;2023-03-01T13:47:40;10.93;;;9.80;;
15202;SDS011;7702;51.046;5.184;2023-03-01T13:50:15;13.17;;;9.50;;
15202;SDS011;7702;51.046;5.184;2023-03-01T13:52:48;12.43;;;10.17;;
15202;SDS011;7702;51.046;5.184;2023-03-01T13:57:41;14.37;;;12.10;;
15202;SDS011;7702;51.046;5.184;2023-03-01T14:02:59;9.90;;;8.80;;
15202;SDS011;7702;51.046;5.184;2023-03-01T14:05:26;11.03;;;8.33;;
15202;SDS011;7702;51.046;5.184;2023-03-01T14:07:52;10.37;;;9.33;;
15202;SDS011;7702;51.046;5.184;2023-03-01T14:10:18;11.20;;;9.07;;
15202;SDS011;7702;51.046;5.184;2023-03-01T14:12:44;9.17;;;7.90;;
15202;SDS011;7702;51.046;5.184;2023-03-01T14:15:32;9.00;;;7.57;;
15202;SDS011;7702;51.046;5.184;2023-03-01T14:20:39;8.73;;;7.60;;
15202;SDS011;7702;51.046;5.184;2023-03-01T14:23:17;9.93;;;8.17;;
15202;SDS011;7702;51.046;5.184;2023-03-01T14:28:19;8.27;;;7.47;;
15202;SDS011;7702;51.046;5.184;2023-03-01T14:30:49;8.80;;;7.90;;
15202;SDS011;7702;51.046;5.184;2023-03-01T14:33:27;10.20;;;7.80;;
15202;SDS011;7702;51.046;5.184;2023-03-01T14:36:03;11.53;;;8.53;;
15202;SDS011;7702;51.046;5.184;2023-03-01T14:38:35;8.30;;;7.40;;
15202;SDS011;7702;51.046;5.184;2023-03-01T14:41:02;8.80;;;7.73;;
15202;SDS011;7702;51.046;5.184;2023-03-01T14:43:33;11.87;;;9.20;;
15202;SDS011;7702;51.046;5.184;2023-03-01T14:46:00;11.80;;;9.53;;
15202;SDS011;7702;51.046;5.184;2023-03-01T14:48:27;12.60;;;9.57;;
15202;SDS011;7702;51.046;5.184;2023-03-01T14:50:54;9.00;;;8.10;;
15202;SDS011;7702;51.046;5.184;2023-03-01T14:53:24;9.87;;;8.63;;
15202;SDS011;7702;51.046;5.184;2023-03-01T14:55:56;10.17;;;7.83;;
15202;SDS011;7702;51.046;5.184;2023-03-01T14:58:31;10.93;;;7.67;;
15202;SDS011;7702;51.046;5.184;2023-03-01T15:00:59;8.50;;;7.60;;
15202;SDS011;7702;51.046;5.184;2023-03-01T15:03:33;7.87;;;7.07;;
15202;SDS011;7702;51.046;5.184;2023-03-01T15:06:00;8.17;;;7.37;;
15202;SDS011;7702;51.046;5.184;2023-03-01T15:08:27;8.50;;;7.13;;
15202;SDS011;7702;51.046;5.184;2023-03-01T15:13:34;7.13;;;6.43;;
15202;SDS011;7702;51.046;5.184;2023-03-01T15:16:10;9.00;;;7.03;;
15202;SDS011;7702;51.046;5.184;2023-03-01T15:19:00;7.67;;;6.27;;
15202;SDS011;7702;51.046;5.184;2023-03-01T15:21:25;7.80;;;6.80;;
15202;SDS011;7702;51.046;5.184;2023-03-01T15:24:05;9.50;;;6.87;;
15202;SDS011;7702;51.046;5.184;2023-03-01T15:26:44;7.93;;;6.80;;
15202;SDS011;7702;51.046;5.184;2023-03-01T15:29:24;8.40;;;6.17;;
15202;SDS011;7702;51.046;5.184;2023-03-01T15:37:04;8.87;;;6.07;;
15202;SDS011;7702;51.046;5.184;2023-03-01T15:39:54;8.13;;;6.00;;
15202;SDS011;7702;51.046;5.184;2023-03-01T15:47:40;9.63;;;6.87;;
15202;SDS011;7702;51.046;5.184;2023-03-01T15:50:16;9.90;;;6.73;;
15202;SDS011;7702;51.046;5.184;2023-03-01T15:52:45;8.17;;;6.97;;
15202;SDS011;7702;51.046;5.184;2023-03-01T15:55:15;8.73;;;6.13;;
15202;SDS011;7702;51.046;5.184;2023-03-01T15:57:42;9.43;;;6.50;;
15202;SDS011;7702;51.046;5.184;2023-03-01T16:00:11;8.53;;;6.07;;
15202;SDS011;7702;51.046;5.184;2023-03-01T16:02:42;6.97;;;6.27;;
15202;SDS011;7702;51.046;5.184;2023-03-01T16:05:19;10.23;;;6.97;;
15202;SDS011;7702;51.046;5.184;2023-03-01T16:07:48;10.03;;;7.20;;
15202;SDS011;7702;51.046;5.184;2023-03-01T16:10:14;11.53;;;7.47;;
15202;SDS011;7702;51.046;5.184;2023-03-01T16:12:40;12.70;;;7.63;;
15202;SDS011;7702;51.046;5.184;2023-03-01T16:15:14;11.17;;;7.60;;
15202;SDS011;7702;51.046;5.184;2023-03-01T16:17:44;8.87;;;7.30;;
15202;SDS011;7702;51.046;5.184;2023-03-01T16:20:10;11.50;;;7.77;;
15202;SDS011;7702;51.046;5.184;2023-03-01T16:22:36;9.60;;;6.63;;
15202;SDS011;7702;51.046;5.184;2023-03-01T16:25:01;12.23;;;7.47;;
15202;SDS011;7702;51.046;5.184;2023-03-01T16:27:27;8.40;;;7.03;;
15202;SDS011;7702;51.046;5.184;2023-03-01T16:29:53;9.53;;;7.50;;
15202;SDS011;7702;51.046;5.184;2023-03-01T16:32:19;9.13;;;7.10;;
15202;SDS011;7702;51.046;5.184;2023-03-01T16:34:45;8.03;;;7.27;;
15202;SDS011;7702;51.046;5.184;2023-03-01T16:37:14;7.83;;;6.60;;
15202;SDS011;7702;51.046;5.184;2023-03-01T16:39:40;6.87;;;6.17;;
15202;SDS011;7702;51.046;5.184;2023-03-01T16:42:06;10.67;;;7.03;;
15202;SDS011;7702;51.046;5.184;2023-03-01T16:44:32;8.83;;;6.23;;
15202;SDS011;7702;51.046;5.184;2023-03-01T16:46:57;7.83;;;6.13;;
15202;SDS011;7702;51.046;5.184;2023-03-01T16:49:23;7.40;;;5.73;;
15202;SDS011;7702;51.046;5.184;2023-03-01T16:51:49;7.40;;;6.20;;
15202;SDS011;7702;51.046;5.184;2023-03-01T16:54:14;8.00;;;6.73;;
15202;SDS011;7702;51.046;5.184;2023-03-01T16:56:40;8.80;;;6.83;;
15202;SDS011;7702;51.046;5.184;2023-03-01T16:59:06;8.07;;;7.13;;
15202;SDS011;7702;51.046;5.184;2023-03-01T17:01:32;11.63;;;7.10;;
15202;SDS011;7702;51.046;5.184;2023-03-01T17:04:02;10.87;;;7.83;;
15202;SDS011;7702;51.046;5.184;2023-03-01T17:06:28;11.10;;;7.03;;
15202;SDS011;7702;51.046;5.184;2023-03-01T17:08:54;11.80;;;8.30;;
15202;SDS011;7702;51.046;5.184;2023-03-01T17:11:21;12.90;;;7.73;;
15202;SDS011;7702;51.046;5.184;2023-03-01T17:13:47;10.57;;;7.13;;
15202;SDS011;7702;51.046;5.184;2023-03-01T17:16:14;12.60;;;8.80;;
15202;SDS011;7702;51.046;5.184;2023-03-01T17:18:41;9.40;;;7.67;;
15202;SDS011;7702;51.046;5.184;2023-03-01T17:21:08;11.20;;;7.60;;